Time;durP1;ratioP1;P1;durP2;ratioP2;P2;SDS_P1;SDS_P2;PMS_P1;PMS_P2;Temp;Humidity;BMP_temperature;BMP_pressure;BME280_temperature;BME280_humidity;BME280_pressure;Samples;Min_cycle;Max_cycle;Signal;HPM_P1;HPM_P2
2022/01/12 00:02:03;;;;;;;0.00;0.00;;;5.40;99.90;;;;;;6213396;23;19900;-73
2022/01/12 00:04:28;;;;;;;;;;;5.50;99.90;;;;;;6213626;23;20043;-73
2022/01/12 00:06:54;;;;;;;0.00;0.00;;;5.60;99.90;;;;;;6211688;23;20263;-74
2022/01/12 00:09:20;;;;;;;0.00;0.00;;;5.50;99.90;;;;;;6212223;23;20008;-73
2022/01/12 00:11:45;;;;;;;0.00;0.00;;;5.60;99.90;;;;;;6212974;23;20051;-73
2022/01/12 00:14:11;;;;;;;0.00;0.00;;;5.70;99.90;;;;;;6213370;23;20329;-73
2022/01/12 00:16:39;;;;;;;0.00;0.00;;;5.50;99.90;;;;;;6214864;23;20028;-74
2022/01/12 00:19:04;;;;;;;0.00;0.00;;;5.30;99.90;;;;;;6213220;23;20040;-73
2022/01/12 00:21:30;;;;;;;0.00;0.00;;;5.20;99.90;;;;;;6213727;23;19997;-73
2022/01/12 00:23:56;;;;;;;0.00;0.00;;;5.10;99.90;;;;;;6214985;23;20353;-73
2022/01/12 00:34:29;;;;;;;0.00;0.00;;;5.10;99.90;;;;;;6195690;23;20001;-74
2022/01/12 00:36:56;;;;;;;0.00;0.00;;;5.30;99.90;;;;;;6215048;23;20001;-74
2022/01/12 00:39:22;;;;;;;0.00;0.00;;;5.20;99.90;;;;;;6213693;23;20011;-73
2022/01/12 00:41:47;;;;;;;;;;;5.30;99.90;;;;;;6215898;23;19997;-74
2022/01/12 00:44:22;;;;;;;0.00;0.00;;;5.40;99.90;;;;;;6214633;23;19900;-74
2022/01/12 00:46:53;;;;;;;0.00;0.00;;;5.40;99.90;;;;;;6214113;23;20008;-73
2022/01/12 00:49:19;;;;;;;0.00;0.00;;;5.40;99.90;;;;;;6213981;23;20012;-73
2022/01/12 00:51:47;;;;;;;0.00;0.00;;;5.30;99.90;;;;;;6215650;23;20024;-74
2022/01/12 00:54:13;;;;;;;0.00;0.00;;;5.00;99.90;;;;;;6214335;23;20325;-73
2022/01/12 00:56:38;;;;;;;;;;;4.80;99.90;;;;;;6216713;23;20012;-73
2022/01/12 00:59:04;;;;;;;0.00;0.00;;;4.80;99.90;;;;;;6215178;23;19962;-74
2022/01/12 01:01:30;;;;;;;0.00;0.00;;;4.70;99.90;;;;;;6214643;23;20055;-73
2022/01/12 01:03:56;;;;;;;0.00;0.00;;;4.70;99.90;;;;;;6216121;23;20025;-73
2022/01/12 01:06:25;;;;;;;0.00;0.00;;;4.80;99.90;;;;;;6215604;23;20011;-74
2022/01/12 01:08:51;;;;;;;0.00;0.00;;;4.80;99.90;;;;;;6216249;23;20068;-72
2022/01/12 01:11:21;;;;;;;0.00;0.00;;;4.70;99.90;;;;;;6215591;23;20074;-72
2022/01/12 01:13:58;;;;;;;0.00;0.00;;;4.60;99.90;;;;;;6214508;23;20087;-73
2022/01/12 01:16:46;;;;;;;0.00;0.00;;;4.70;99.90;;;;;;6214347;23;20337;-73
2022/01/12 01:27:27;;;;;;;0.00;0.00;;;5.00;99.90;;;;;;6213439;23;20475;-73
2022/01/12 01:29:54;;;;;;;0.00;0.00;;;5.00;99.90;;;;;;6213592;23;20001;-73
2022/01/12 01:32:20;;;;;;;0.00;0.00;;;5.10;99.90;;;;;;6214287;23;20388;-73
2022/01/12 01:34:48;;;;;;;;;;;5.00;99.90;;;;;;6214541;23;20000;-74
2022/01/12 01:37:15;;;;;;;0.00;0.00;;;4.70;99.90;;;;;;6214167;23;19911;-74
2022/01/12 01:39:41;;;;;;;0.00;0.00;;;4.50;99.90;;;;;;6213470;23;20003;-73
2022/01/12 01:42:19;;;;;;;0.00;0.00;;;4.50;99.90;;;;;;6214668;23;20001;-73
2022/01/12 01:55:28;;;;;;;0.00;0.00;;;4.30;99.90;;;;;;6214743;23;20427;-74
2022/01/12 01:57:55;;;;;;;0.00;0.00;;;4.30;99.90;;;;;;6214394;23;20004;-75
2022/01/12 02:00:23;;;;;;;;;;;4.30;99.90;;;;;;6214430;23;19997;-74
2022/01/12 02:02:50;;;;;;;0.00;0.00;;;4.40;99.90;;;;;;6215641;23;20297;-73
2022/01/12 02:05:16;;;;;;;0.00;0.00;;;4.50;99.90;;;;;;6216582;23;20078;-74
2022/01/12 02:07:43;;;;;;;0.00;0.00;;;4.50;99.90;;;;;;6213765;23;20421;-73
2022/01/12 02:10:09;;;;;;;0.00;0.00;;;4.50;99.90;;;;;;6215362;23;20421;-72
2022/01/12 02:12:35;;;;;;;0.00;0.00;;;4.30;99.90;;;;;;6214144;23;20003;-73
2022/01/12 02:15:01;;;;;;;0.00;0.00;;;4.10;99.90;;;;;;6212814;23;20001;-73
2022/01/12 02:17:35;;;;;;;0.00;0.00;;;4.10;99.90;;;;;;6214196;23;20000;-74
2022/01/12 02:20:31;;;;;;;0.00;0.00;;;4.00;99.90;;;;;;6212041;23;20079;-73
2022/01/12 02:39:56;;;;;;;0.00;0.00;;;3.30;99.90;;;;;;6180542;23;20021;-73
2022/01/12 02:42:23;;;;;;;0.00;0.00;;;3.40;99.90;;;;;;6184675;23;20001;-73
2022/01/12 02:56:11;;;;;;;0.00;0.00;;;3.10;99.90;;;;;;6096897;23;20379;-73
2022/01/12 02:58:39;;;;;;;0.00;0.00;;;3.10;99.90;;;;;;6154001;23;20001;-73
2022/01/12 03:03:44;;;;;;;0.00;0.00;;;3.00;99.90;;;;;;6190112;23;20001;-74
2022/01/12 03:06:14;;;;;;;0.00;0.00;;;3.00;99.90;;;;;;6190081;23;20032;-73
2022/01/12 03:08:44;;;;;;;0.00;0.00;;;2.90;99.90;;;;;;6191225;23;20032;-73
2022/01/12 03:11:12;;;;;;;0.00;0.00;;;3.00;99.90;;;;;;6187707;23;20001;-73
2022/01/12 03:13:38;;;;;;;0.00;0.00;;;3.00;99.90;;;;;;6189312;23;20004;-74
2022/01/12 03:16:12;;;;;;;0.00;0.00;;;3.00;99.90;;;;;;6189529;23;20005;-73
2022/01/12 03:18:37;;;;;;;0.00;0.00;;;2.90;99.90;;;;;;6187138;23;20008;-73
2022/01/12 03:21:04;;;;;;;0.00;0.00;;;2.80;99.90;;;;;;6185892;23;20001;-73
2022/01/12 03:23:30;;;;;;;0.00;0.00;;;2.80;99.90;;;;;;6186542;23;20059;-73
2022/01/12 03:25:56;;;;;;;0.00;0.00;;;2.90;99.90;;;;;;6186279;23;20084;-73
2022/01/12 03:28:21;;;;;;;0.00;0.00;;;3.10;99.90;;;;;;6184710;23;20032;-73
2022/01/12 03:38:41;;;;;;;0.00;0.00;;;2.80;99.90;;;;;;6207121;23;20020;-73
2022/01/12 03:41:07;;;;;;;0.00;0.00;;;2.60;99.90;;;;;;6212930;23;19996;-73
2022/01/12 03:43:33;;;;;;;0.00;0.00;;;2.60;99.90;;;;;;6214699;23;20364;-72
2022/01/12 03:45:58;;;;;;;0.00;0.00;;;2.50;99.90;;;;;;6212780;23;20024;-72
2022/01/12 03:48:24;;;;;;;0.00;0.00;;;2.50;99.90;;;;;;6214619;23;20000;-72
2022/01/12 03:50:50;;;;;;;0.00;0.00;;;2.40;99.90;;;;;;6216096;23;20028;-73
2022/01/12 03:53:16;;;;;;;0.00;0.00;;;2.30;99.90;;;;;;6214034;23;20001;-73
2022/01/12 03:55:43;;;;;;;;;;;2.30;99.90;;;;;;6216703;23;20037;-72
2022/01/12 03:58:11;;;;;;;0.00;0.00;;;2.30;99.90;;;;;;6216306;23;20232;-73
2022/01/12 04:00:37;;;;;;;0.00;0.00;;;2.30;99.90;;;;;;6214066;23;20429;-73
2022/01/12 04:03:07;;;;;;;0.00;0.00;;;2.30;99.90;;;;;;6216272;23;20000;-73
2022/01/12 04:08:20;;;;;;;0.00;0.00;;;2.20;99.90;;;;;;6215533;23;20032;-74
2022/01/12 04:10:58;;;;;;;0.00;0.00;;;2.20;99.90;;;;;;6214783;23;20004;-72
2022/01/12 04:13:26;;;;;;;0.00;0.00;;;2.30;99.90;;;;;;6215229;23;20364;-73
2022/01/12 04:15:56;;;;;;;0.00;0.00;;;2.30;99.90;;;;;;6216710;23;20418;-74
2022/01/12 04:18:22;;;;;;;0.00;0.00;;;2.30;99.90;;;;;;6216897;23;20004;-74
2022/01/12 04:20:49;;;;;;;0.00;0.00;;;2.30;99.90;;;;;;6215716;23;20035;-73
2022/01/12 04:23:20;;;;;;;0.00;0.00;;;2.30;99.90;;;;;;6215947;23;20070;-72
2022/01/12 04:25:56;;;;;;;0.00;0.00;;;2.40;99.90;;;;;;6216513;23;20031;-73
2022/01/12 04:28:23;;;;;;;0.00;0.00;;;2.40;99.90;;;;;;6216088;23;20009;-73
2022/01/12 04:30:50;;;;;;;0.00;0.00;;;2.50;99.90;;;;;;6216268;23;20004;-74
2022/01/12 04:33:18;;;;;;;0.00;0.00;;;2.40;99.90;;;;;;6215088;23;19997;-72
2022/01/12 04:35:47;;;;;;;0.00;0.00;;;2.20;99.90;;;;;;6216619;23;19997;-73
2022/01/12 04:38:14;;;;;;;0.00;0.00;;;2.20;99.90;;;;;;6216515;23;20147;-73
2022/01/12 04:40:40;;;;;;;0.00;0.00;;;2.20;99.90;;;;;;6215317;23;20004;-72
2022/01/12 04:43:08;;;;;;;;;;;2.00;99.90;;;;;;6217133;23;20007;-74
2022/01/12 04:48:32;;;;;;;0.00;0.00;;;2.00;99.90;;;;;;6214956;23;20108;-72
2022/01/12 04:50:56;;;;;;;0.00;0.00;;;1.90;99.90;;;;;;6215939;23;20384;-73
2022/01/12 04:53:22;;;;;;;0.00;0.00;;;2.00;99.90;;;;;;6214951;23;20032;-72
2022/01/12 04:55:49;;;;;;;0.00;0.00;;;2.00;99.90;;;;;;6215810;23;19996;-73
2022/01/12 04:58:16;;;;;;;0.00;0.00;;;2.00;99.90;;;;;;6216700;23;20119;-74
2022/01/12 05:00:44;;;;;;;0.00;0.00;;;2.00;99.90;;;;;;6215359;23;20040;-74
2022/01/12 05:13:56;;;;;;;0.00;0.00;;;1.80;99.90;;;;;;6213955;23;20349;-74
2022/01/12 05:16:23;;;;;;;0.00;0.00;;;1.80;99.90;;;;;;6214529;23;20054;-73
2022/01/12 05:18:50;;;;;;;0.00;0.00;;;2.00;99.90;;;;;;6215448;23;20055;-74
2022/01/12 05:21:18;;;;;;;0.00;0.00;;;2.20;99.90;;;;;;6214467;23;20395;-73
2022/01/12 05:23:44;;;;;;;0.00;0.00;;;2.40;99.90;;;;;;6213911;23;20699;-73
2022/01/12 05:26:09;;;;;;;0.00;0.00;;;2.50;99.90;;;;;;6214208;23;20005;-74
2022/01/12 05:28:38;;;;;;;0.00;0.00;;;2.70;99.90;;;;;;6215068;23;20291;-73
2022/01/12 05:31:04;;;;;;;0.00;0.00;;;2.90;99.90;;;;;;6215346;23;20721;-73
2022/01/12 05:33:31;;;;;;;0.00;0.00;;;3.00;99.90;;;;;;6213866;23;19993;-72
2022/01/12 05:35:58;;;;;;;0.00;0.00;;;3.10;99.90;;;;;;6215400;23;20008;-73
2022/01/12 05:38:25;;;;;;;0.00;0.00;;;3.20;99.90;;;;;;6214960;23;20019;-74
2022/01/12 05:40:55;;;;;;;0.00;0.00;;;3.30;99.90;;;;;;6215178;23;20001;-73
2022/01/12 05:43:27;;;;;;;0.00;0.00;;;3.30;99.90;;;;;;6216910;23;20079;-72
2022/01/12 05:45:55;;;;;;;0.00;0.00;;;3.30;99.90;;;;;;6217003;23;20004;-73
2022/01/12 05:50:49;;;;;;;0.00;0.00;;;3.10;99.90;;;;;;6216579;23;20004;-73
2022/01/12 05:53:17;;;;;;;0.00;0.00;;;2.90;99.90;;;;;;6215107;23;20055;-73
2022/01/12 05:55:43;;;;;;;0.00;0.00;;;3.00;99.90;;;;;;6215370;23;20562;-72
2022/01/12 05:58:09;;;;;;;;;;;3.00;99.90;;;;;;6216545;23;20110;-72
2022/01/12 06:00:35;;;;;;;0.00;0.00;;;2.90;99.90;;;;;;6215698;23;20338;-73
2022/01/12 06:03:00;;;;;;;0.00;0.00;;;2.90;99.90;;;;;;6215537;23;20003;-72
2022/01/12 06:05:28;;;;;;;0.00;0.00;;;2.80;99.90;;;;;;6215575;23;20084;-73
2022/01/12 06:07:54;;;;;;;0.00;0.00;;;2.70;99.90;;;;;;6215310;23;20016;-72
2022/01/12 06:10:22;;;;;;;0.00;0.00;;;2.60;99.90;;;;;;6215890;23;20004;-73
2022/01/12 06:12:52;;;;;;;0.00;0.00;;;2.40;99.90;;;;;;6214911;23;19996;-72
2022/01/12 06:15:18;;;;;;;0.00;0.00;;;2.30;99.90;;;;;;6216922;23;20385;-73
2022/01/12 06:17:44;;;;;;;;;;;2.30;99.90;;;;;;6218459;23;20009;-74
2022/01/12 06:20:10;;;;;;;0.00;0.00;;;2.20;99.90;;;;;;6216097;23;19900;-74
2022/01/12 06:22:36;;;;;;;;;;;2.10;99.90;;;;;;6216401;23;20056;-73
2022/01/12 06:25:06;;;;;;;0.00;0.00;;;2.30;99.90;;;;;;6215072;23;19900;-71
2022/01/12 06:27:34;;;;;;;0.00;0.00;;;2.40;99.90;;;;;;6214380;23;20310;-73
2022/01/12 06:31:10;;;;;;;0.00;0.00;;;2.30;99.90;;;;;;6216190;23;20139;-72
2022/01/12 06:33:00;;;;;;;0.00;0.00;;;2.20;99.90;;;;;;6213923;23;19996;-73
2022/01/12 06:35:26;;;;;;;0.00;0.00;;;2.20;99.90;;;;;;6214805;23;20400;-73
2022/01/12 06:37:52;;;;;;;0.00;0.00;;;2.40;99.90;;;;;;6214549;23;20457;-74
2022/01/12 06:40:19;;;;;;;0.00;0.00;;;2.40;99.90;;;;;;6213233;23;19993;-72
2022/01/12 06:42:46;;;;;;;0.00;0.00;;;2.20;99.90;;;;;;6215036;23;20001;-74
2022/01/12 06:45:12;;;;;;;0.05;0.05;;;2.20;99.90;;;;;;6213964;23;20043;-72
2022/01/12 06:47:38;;;;;;;0.00;0.00;;;2.30;99.90;;;;;;6212108;23;20004;-73
2022/01/12 06:50:05;;;;;;;0.00;0.00;;;2.40;99.90;;;;;;6214807;23;20401;-72
2022/01/12 06:52:31;;;;;;;0.00;0.00;;;2.40;99.90;;;;;;6214415;23;19997;-73
2022/01/12 06:54:57;;;;;;;;;;;2.40;99.90;;;;;;6213428;23;20004;-74
2022/01/12 06:57:23;;;;;;;0.00;0.00;;;2.40;99.90;;;;;;6213945;23;19903;-73
2022/01/12 06:59:49;;;;;;;0.00;0.00;;;2.60;99.90;;;;;;6211554;23;20032;-73
2022/01/12 07:02:15;;;;;;;;;;;2.60;99.90;;;;;;6214970;23;19997;-73
2022/01/12 07:04:40;;;;;;;0.00;0.00;;;2.50;99.90;;;;;;6213083;23;19923;-72
2022/01/12 07:07:06;;;;;;;;;;;2.60;99.90;;;;;;6213378;23;20044;-72
2022/01/12 07:09:31;;;;;;;0.00;0.00;;;2.50;99.90;;;;;;6214850;23;19937;-73
2022/01/12 07:11:57;;;;;;;0.00;0.00;;;2.60;99.90;;;;;;6211816;23;20013;-73
2022/01/12 07:14:23;;;;;;;0.00;0.00;;;2.70;99.90;;;;;;6213267;23;20000;-73
2022/01/12 07:16:49;;;;;;;0.00;0.00;;;2.70;99.90;;;;;;6214147;23;20436;-73
2022/01/12 07:19:15;;;;;;;0.00;0.00;;;2.60;99.90;;;;;;6213967;23;20005;-73
2022/01/12 07:21:41;;;;;;;0.00;0.00;;;2.70;99.90;;;;;;6214019;23;20007;-73
2022/01/12 07:24:06;;;;;;;;;;;2.70;99.90;;;;;;6212352;23;20016;-73
2022/01/12 07:26:33;;;;;;;0.00;0.00;;;2.70;99.90;;;;;;6212458;23;20320;-72
2022/01/12 07:28:59;;;;;;;0.00;0.00;;;2.60;99.90;;;;;;6214167;23;20008;-74
2022/01/12 07:31:25;;;;;;;0.00;0.00;;;2.70;99.90;;;;;;6214158;23;20372;-72
2022/01/12 07:33:51;;;;;;;;;;;2.70;99.90;;;;;;6214585;23;20076;-72
2022/01/12 07:36:17;;;;;;;0.00;0.00;;;2.60;99.90;;;;;;6215570;23;19951;-72
2022/01/12 07:38:43;;;;;;;0.00;0.00;;;2.60;99.90;;;;;;6214746;23;20445;-73
2022/01/12 07:41:09;;;;;;;;;;;2.70;99.90;;;;;;6214003;23;20133;-73
2022/01/12 07:43:35;;;;;;;0.00;0.00;;;2.90;99.90;;;;;;6213457;23;20317;-72
2022/01/12 07:46:00;;;;;;;;;;;3.00;99.90;;;;;;6217458;23;20036;-70
2022/01/12 07:48:27;;;;;;;0.00;0.00;;;3.00;99.90;;;;;;6220696;23;19908;-72
2022/01/12 07:50:53;;;;;;;0.00;0.00;;;3.10;99.90;;;;;;6224364;23;19996;-72
2022/01/12 07:53:18;;;;;;;0.00;0.00;;;3.00;99.90;;;;;;6220182;23;20005;-73
2022/01/12 07:55:44;;;;;;;0.00;0.00;;;3.00;99.90;;;;;;6219261;23;20091;-73
2022/01/12 07:58:10;;;;;;;;;;;2.90;99.90;;;;;;6224776;23;20003;-73
2022/01/12 08:00:36;;;;;;;0.00;0.00;;;3.00;99.90;;;;;;6219370;23;19928;-73
2022/01/12 08:03:02;;;;;;;0.00;0.00;;;3.00;99.90;;;;;;6219372;23;20413;-72
2022/01/12 08:05:28;;;;;;;0.00;0.00;;;3.00;99.90;;;;;;6221747;23;20000;-72
2022/01/12 08:07:55;;;;;;;0.10;0.10;;;2.90;99.90;;;;;;6216215;23;20116;-73
2022/01/12 08:10:21;;;;;;;0.03;0.03;;;2.90;99.90;;;;;;6217519;23;20040;-72
2022/01/12 08:12:47;;;;;;;0.10;0.10;;;2.90;99.90;;;;;;6213501;23;20004;-73
2022/01/12 08:15:13;;;;;;;0.00;0.00;;;3.00;99.90;;;;;;6213818;23;20005;-75
2022/01/12 08:17:39;;;;;;;0.00;0.00;;;3.10;99.90;;;;;;6213163;23;20004;-72
2022/01/12 08:20:06;;;;;;;0.05;0.05;;;3.10;99.90;;;;;;6210944;23;20505;-71
2022/01/12 08:22:32;;;;;;;0.10;0.10;;;3.10;99.90;;;;;;6212016;23;20047;-71
2022/01/12 08:24:59;;;;;;;0.10;0.10;;;3.10;99.90;;;;;;6211704;23;20000;-72
2022/01/12 08:27:24;;;;;;;;;;;3.00;99.90;;;;;;6210925;23;20364;-72
2022/01/12 08:29:54;;;;;;;0.10;0.10;;;3.00;99.90;;;;;;6211937;23;19903;-71
2022/01/12 08:32:19;;;;;;;0.00;0.00;;;3.10;99.90;;;;;;6211890;23;19997;-72
2022/01/12 08:34:45;;;;;;;0.08;0.08;;;3.10;99.90;;;;;;6211345;23;20008;-72
2022/01/12 08:37:11;;;;;;;;;;;3.20;99.90;;;;;;6213602;23;20056;-72
2022/01/12 08:39:37;;;;;;;0.03;0.03;;;3.20;99.90;;;;;;6212852;23;20087;-72
2022/01/12 08:42:02;;;;;;;0.10;0.10;;;3.20;99.90;;;;;;6213673;23;20008;-73
2022/01/12 08:44:28;;;;;;;0.10;0.10;;;3.20;99.90;;;;;;6212089;23;20011;-72
2022/01/12 08:46:54;;;;;;;0.10;0.10;;;3.20;99.90;;;;;;6212674;23;20328;-72
2022/01/12 08:49:20;;;;;;;0.10;0.10;;;3.20;99.90;;;;;;6214338;23;20015;-72
2022/01/12 08:51:45;;;;;;;0.00;0.00;;;3.30;99.90;;;;;;6214397;23;20007;-73
2022/01/12 08:54:13;;;;;;;0.10;0.10;;;3.20;99.90;;;;;;6211577;23;19997;-72
2022/01/12 08:56:39;;;;;;;0.10;0.10;;;3.20;99.90;;;;;;6214044;23;20011;-72
2022/01/12 08:59:05;;;;;;;0.10;0.10;;;3.20;99.90;;;;;;6213351;23;20075;-72
2022/01/12 09:01:31;;;;;;;0.10;0.10;;;3.20;99.90;;;;;;6212986;23;20024;-72
2022/01/12 09:03:57;;;;;;;0.10;0.10;;;3.40;99.90;;;;;;6213447;23;19996;-72
2022/01/12 09:06:22;;;;;;;0.20;0.20;;;3.20;99.90;;;;;;6212171;23;20064;-71
2022/01/12 09:08:49;;;;;;;0.20;0.20;;;3.40;99.90;;;;;;6212334;23;20009;-72
2022/01/12 09:11:15;;;;;;;0.10;0.10;;;3.40;99.90;;;;;;6213950;23;19996;-71
2022/01/12 09:13:40;;;;;;;;;;;3.20;99.90;;;;;;6213537;23;19996;-72
2022/01/12 09:16:08;;;;;;;0.10;0.10;;;3.00;99.90;;;;;;6213881;23;20023;-72
2022/01/12 09:18:36;;;;;;;0.20;0.20;;;2.80;99.90;;;;;;6212131;23;20016;-72
2022/01/12 09:21:02;;;;;;;0.25;0.25;;;2.70;99.90;;;;;;6212575;23;19993;-72
2022/01/12 09:23:28;;;;;;;0.10;0.10;;;2.70;99.90;;;;;;6213379;23;20001;-71
2022/01/12 09:25:54;;;;;;;0.20;0.20;;;2.90;99.90;;;;;;6213903;23;20003;-71
2022/01/12 09:28:19;;;;;;;;;;;2.90;99.90;;;;;;6213091;23;20020;-70
2022/01/12 09:30:45;;;;;;;0.17;0.17;;;3.00;99.90;;;;;;6213895;23;19899;-73
2022/01/12 09:33:11;;;;;;;0.20;0.20;;;3.20;99.90;;;;;;6212218;23;20334;-72
2022/01/12 09:35:37;;;;;;;0.20;0.20;;;3.30;99.90;;;;;;6213557;23;19997;-71
2022/01/12 09:38:02;;;;;;;0.20;0.20;;;3.20;99.90;;;;;;6213760;23;20012;-72
2022/01/12 09:40:28;;;;;;;0.20;0.20;;;3.20;99.90;;;;;;6212591;23;20003;-72
2022/01/12 09:42:55;;;;;;;0.10;0.10;;;3.20;99.90;;;;;;6214434;23;20094;-72
2022/01/12 09:45:23;;;;;;;0.10;0.10;;;3.30;99.90;;;;;;6215660;23;20020;-72
2022/01/12 09:47:50;;;;;;;0.20;0.20;;;3.40;99.90;;;;;;6215142;23;20005;-72
2022/01/12 09:50:19;;;;;;;0.10;0.10;;;3.50;99.90;;;;;;6211919;23;20011;-72
2022/01/12 09:52:45;;;;;;;0.10;0.10;;;3.60;99.90;;;;;;6212351;23;20008;-72
2022/01/12 09:55:11;;;;;;;0.30;0.30;;;3.70;99.90;;;;;;6213554;23;20004;-72
2022/01/12 09:57:37;;;;;;;0.20;0.20;;;3.80;99.90;;;;;;6213826;23;20008;-71
2022/01/12 10:00:07;;;;;;;0.10;0.10;;;3.80;99.90;;;;;;6212180;23;20000;-71
2022/01/12 10:02:33;;;;;;;0.00;0.00;;;3.70;99.90;;;;;;6213241;23;19999;-73
2022/01/12 10:05:09;;;;;;;0.10;0.10;;;3.80;99.90;;;;;;6214547;23;19997;-71
2022/01/12 10:07:36;;;;;;;0.10;0.10;;;3.90;99.90;;;;;;6211562;23;20004;-72
2022/01/12 10:10:05;;;;;;;0.10;0.10;;;3.90;99.90;;;;;;6211670;23;20385;-71
2022/01/12 10:12:32;;;;;;;0.00;0.00;;;3.90;99.90;;;;;;6212718;23;20005;-72
2022/01/12 10:15:00;;;;;;;0.10;0.10;;;4.00;99.90;;;;;;6212544;23;20078;-72
2022/01/12 10:17:39;;;;;;;0.10;0.10;;;4.00;99.90;;;;;;6212641;23;20092;-72
2022/01/12 10:20:13;;;;;;;0.00;0.00;;;4.00;99.90;;;;;;6211541;23;20032;-72
2022/01/12 10:22:57;;;;;;;0.10;0.10;;;4.00;99.90;;;;;;6212304;23;19997;-72
2022/01/12 10:25:24;;;;;;;0.03;0.03;;;4.10;99.90;;;;;;6213126;23;20004;-73
2022/01/12 10:27:50;;;;;;;0.08;0.08;;;4.20;99.90;;;;;;6210924;23;20005;-73
2022/01/12 10:30:28;;;;;;;0.00;0.00;;;4.30;99.90;;;;;;6212608;23;20079;-72
2022/01/12 10:33:08;;;;;;;0.05;0.05;;;4.40;99.90;;;;;;6211625;23;20000;-72
2022/01/12 10:35:40;;;;;;;0.00;0.00;;;4.40;99.90;;;;;;6211790;23;20055;-72
2022/01/12 10:38:14;;;;;;;0.00;0.00;;;4.40;99.90;;;;;;6210455;23;20040;-72
2022/01/12 10:40:47;;;;;;;0.00;0.00;;;4.10;99.90;;;;;;6212101;23;20011;-73
2022/01/12 10:43:36;;;;;;;0.10;0.10;;;4.10;99.90;;;;;;6210478;23;20036;-72
2022/01/12 10:46:17;;;;;;;0.00;0.00;;;4.20;99.90;;;;;;6211721;23;20004;-72
2022/01/12 10:48:49;;;;;;;0.00;0.00;;;4.00;99.90;;;;;;6212523;23;20408;-73
2022/01/12 10:51:18;;;;;;;0.10;0.10;;;4.10;99.90;;;;;;6213004;23;20004;-72
2022/01/12 10:53:44;;;;;;;0.03;0.03;;;4.00;99.90;;;;;;6210727;23;20001;-72
2022/01/12 10:56:11;;;;;;;;;;;4.10;99.90;;;;;;6214900;23;20337;-72
2022/01/12 10:58:46;;;;;;;0.00;0.00;;;4.20;99.90;;;;;;6212152;23;19900;-72
2022/01/12 11:01:14;;;;;;;0.00;0.00;;;4.30;99.90;;;;;;6213331;23;20004;-73
2022/01/12 11:03:40;;;;;;;0.00;0.00;;;4.30;99.90;;;;;;6214298;23;20075;-71
2022/01/12 11:06:08;;;;;;;0.00;0.00;;;4.40;99.90;;;;;;6213884;23;19997;-74
2022/01/12 11:08:34;;;;;;;0.00;0.00;;;4.30;99.90;;;;;;6213413;23;20011;-72
2022/01/12 11:11:01;;;;;;;0.00;0.00;;;4.40;99.90;;;;;;6212197;23;20064;-72
2022/01/12 11:13:28;;;;;;;0.00;0.00;;;4.30;99.90;;;;;;6212517;23;20004;-72
2022/01/12 11:15:56;;;;;;;0.00;0.00;;;4.40;99.90;;;;;;6212951;23;20028;-71
2022/01/12 11:18:25;;;;;;;0.00;0.00;;;4.50;99.90;;;;;;6214116;23;20005;-71
2022/01/12 11:20:55;;;;;;;0.00;0.00;;;4.60;99.90;;;;;;6211998;23;20019;-72
2022/01/12 11:23:36;;;;;;;0.00;0.00;;;4.70;99.90;;;;;;6213927;23;20008;-72
2022/01/12 11:26:22;;;;;;;0.00;0.00;;;4.80;99.90;;;;;;6211414;23;20333;-73
2022/01/12 11:28:51;;;;;;;0.00;0.00;;;4.80;99.90;;;;;;6211812;23;20008;-72
2022/01/12 11:31:32;;;;;;;0.00;0.00;;;4.80;99.90;;;;;;6213708;23;20007;-72
2022/01/12 11:33:58;;;;;;;0.00;0.00;;;4.80;99.90;;;;;;6212571;23;20285;-72
2022/01/12 11:36:28;;;;;;;0.00;0.00;;;5.00;99.90;;;;;;6212552;23;20007;-73
2022/01/12 11:39:01;;;;;;;0.00;0.00;;;5.10;99.90;;;;;;6212433;23;20012;-74
2022/01/12 11:41:30;;;;;;;0.00;0.00;;;5.10;99.90;;;;;;6211566;23;20341;-73
2022/01/12 11:44:05;;;;;;;0.00;0.00;;;5.10;99.90;;;;;;6212915;23;20051;-71
2022/01/12 11:46:53;;;;;;;0.00;0.00;;;5.20;99.90;;;;;;6210336;23;20005;-71
2022/01/12 11:49:32;;;;;;;0.00;0.00;;;5.20;99.90;;;;;;6212113;23;20390;-73
2022/01/12 11:51:59;;;;;;;0.00;0.00;;;5.20;99.90;;;;;;6212044;23;20047;-73
2022/01/12 11:54:36;;;;;;;0.00;0.00;;;5.30;99.90;;;;;;6211228;23;20062;-73
2022/01/12 11:57:11;;;;;;;0.00;0.00;;;5.40;99.90;;;;;;6210793;23;20000;-72
2022/01/12 12:00:00;;;;;;;0.00;0.00;;;5.60;99.90;;;;;;6211326;23;20323;-73
2022/01/12 12:02:41;;;;;;;0.00;0.00;;;5.70;99.90;;;;;;6212415;23;20505;-72
2022/01/12 12:05:13;;;;;;;0.00;0.00;;;5.70;99.90;;;;;;6212366;23;20448;-72
2022/01/12 12:07:50;;;;;;;0.00;0.00;;;5.80;99.90;;;;;;6210134;23;20005;-73
2022/01/12 12:10:37;;;;;;;0.00;0.00;;;5.80;99.90;;;;;;6213673;23;20437;-71
2022/01/12 12:13:05;;;;;;;0.00;0.00;;;5.90;99.90;;;;;;6210796;23;20040;-72
2022/01/12 12:15:31;;;;;;;0.00;0.00;;;6.00;99.90;;;;;;6214549;23;20001;-73
2022/01/12 12:18:04;;;;;;;0.00;0.00;;;5.80;99.90;;;;;;6212150;23;20028;-72
2022/01/12 12:20:31;;;;;;;0.00;0.00;;;5.80;99.90;;;;;;6212589;23;20421;-72
2022/01/12 12:22:57;;;;;;;0.00;0.00;;;5.90;99.90;;;;;;6212111;23;20043;-73
2022/01/12 12:25:28;;;;;;;0.00;0.00;;;5.80;99.90;;;;;;6213942;23;19997;-71
2022/01/12 12:27:56;;;;;;;0.00;0.00;;;5.80;99.90;;;;;;6212699;23;20440;-72
2022/01/12 12:30:23;;;;;;;0.00;0.00;;;5.80;99.90;;;;;;6214407;23;20001;-72
2022/01/12 12:32:56;;;;;;;0.00;0.00;;;5.80;99.90;;;;;;6213088;23;20000;-72
2022/01/12 12:35:30;;;;;;;0.00;0.00;;;5.90;99.90;;;;;;6212434;23;20009;-72
2022/01/12 12:38:01;;;;;;;0.00;0.00;;;5.90;99.90;;;;;;6213795;23;20016;-71
2022/01/12 12:40:30;;;;;;;0.00;0.00;;;5.90;99.90;;;;;;6213732;23;20001;-72
2022/01/12 12:43:15;;;;;;;0.00;0.00;;;5.80;99.90;;;;;;6214428;23;20068;-70
2022/01/12 12:45:43;;;;;;;0.00;0.00;;;5.90;99.90;;;;;;6214450;23;20365;-72
2022/01/12 12:48:12;;;;;;;0.00;0.00;;;5.90;99.90;;;;;;6213317;23;20383;-72
2022/01/12 12:50:37;;;;;;;0.00;0.00;;;5.90;99.90;;;;;;6214275;23;20447;-70
2022/01/12 12:53:03;;;;;;;0.00;0.00;;;5.90;99.90;;;;;;6212388;23;20033;-71
2022/01/12 12:55:37;;;;;;;0.00;0.00;;;5.80;99.90;;;;;;6214231;23;20001;-72
2022/01/12 12:58:04;;;;;;;0.00;0.00;;;5.90;99.90;;;;;;6212131;23;20028;-72
2022/01/12 13:00:31;;;;;;;0.00;0.00;;;5.90;99.90;;;;;;6210525;23;20142;-73
2022/01/12 13:02:58;;;;;;;0.00;0.00;;;5.90;99.90;;;;;;6214083;23;19993;-72
2022/01/12 13:05:27;;;;;;;0.00;0.00;;;5.90;99.90;;;;;;6213461;23;20000;-71
2022/01/12 13:07:54;;;;;;;0.00;0.00;;;6.00;99.90;;;;;;6213433;23;20386;-72
2022/01/12 13:10:29;;;;;;;0.00;0.00;;;6.00;99.90;;;;;;6212427;23;20013;-70
2022/01/12 13:12:58;;;;;;;0.00;0.00;;;6.00;99.90;;;;;;6213105;23;20371;-72
2022/01/12 13:15:28;;;;;;;0.00;0.00;;;6.10;99.90;;;;;;6213758;23;19996;-71
2022/01/12 13:18:17;;;;;;;0.00;0.00;;;6.10;99.90;;;;;;6213984;23;20052;-72
2022/01/12 13:23:36;;;;;;;0.00;0.00;;;6.30;99.90;;;;;;6214750;23;20039;-71
2022/01/12 13:26:05;;;;;;;0.00;0.00;;;6.30;99.90;;;;;;6212785;23;19992;-70
2022/01/12 13:28:36;;;;;;;0.00;0.00;;;6.30;99.90;;;;;;6214586;23;20076;-70
2022/01/12 13:31:07;;;;;;;0.00;0.00;;;6.40;99.90;;;;;;6215977;23;20027;-70
2022/01/12 13:33:36;;;;;;;0.00;0.00;;;6.50;99.90;;;;;;6212994;23;20062;-71
2022/01/12 13:36:15;;;;;;;0.00;0.00;;;6.50;99.90;;;;;;6214874;23;20459;-71
2022/01/12 13:38:42;;;;;;;0.00;0.00;;;6.60;99.90;;;;;;6215518;23;20099;-72
2022/01/12 13:41:17;;;;;;;0.00;0.00;;;6.60;99.90;;;;;;6216778;23;19997;-71
2022/01/12 13:43:48;;;;;;;0.00;0.00;;;6.80;99.90;;;;;;6216906;23;20032;-70
2022/01/12 13:46:16;;;;;;;0.00;0.00;;;6.80;99.90;;;;;;6215788;23;20008;-71
2022/01/12 13:51:38;;;;;;;0.00;0.00;;;7.00;99.90;;;;;;6217748;23;20448;-71
2022/01/12 13:54:12;;;;;;;0.00;0.00;;;7.10;99.90;;;;;;6214335;23;20036;-71
2022/01/12 13:56:57;;;;;;;0.00;0.00;;;7.10;99.90;;;;;;6214467;23;19997;-71
2022/01/12 13:59:29;;;;;;;0.00;0.00;;;7.20;99.90;;;;;;6212758;23;20000;-70
2022/01/12 14:02:04;;;;;;;0.00;0.00;;;7.30;99.90;;;;;;6215659;23;20009;-71
2022/01/12 14:04:39;;;;;;;0.00;0.00;;;7.30;99.90;;;;;;6214219;23;20029;-71
2022/01/12 14:07:11;;;;;;;0.00;0.00;;;7.40;99.90;;;;;;6212441;23;20083;-70
2022/01/12 14:09:41;;;;;;;0.00;0.00;;;7.50;99.90;;;;;;6214848;23;20080;-71
2022/01/12 14:12:13;;;;;;;0.00;0.00;;;7.60;99.90;;;;;;6215472;23;20012;-71
2022/01/12 14:14:57;;;;;;;0.00;0.00;;;7.60;99.90;;;;;;6213429;23;20039;-71
2022/01/12 14:17:43;;;;;;;0.00;0.00;;;7.50;99.90;;;;;;6213260;23;20000;-72
2022/01/12 14:20:23;;;;;;;0.00;0.00;;;7.60;99.90;;;;;;6212043;23;20008;-72
2022/01/12 14:22:58;;;;;;;0.00;0.00;;;7.70;99.90;;;;;;6211862;23;20275;-71
2022/01/12 14:25:36;;;;;;;0.00;0.00;;;7.80;99.90;;;;;;6210837;23;20428;-69
2022/01/12 14:28:03;;;;;;;0.00;0.00;;;7.80;99.90;;;;;;6211450;23;20004;-71
2022/01/12 14:30:29;;;;;;;0.00;0.00;;;7.90;99.90;;;;;;6212347;23;20000;-71
2022/01/12 14:32:58;;;;;;;0.00;0.00;;;7.90;99.90;;;;;;6210755;23;20080;-70
2022/01/12 14:35:24;;;;;;;0.00;0.00;;;7.90;99.90;;;;;;6213307;23;19996;-70
2022/01/12 14:37:51;;;;;;;0.00;0.00;;;7.90;99.90;;;;;;6211996;23;20094;-71
2022/01/12 14:40:19;;;;;;;0.00;0.00;;;7.90;99.90;;;;;;6212602;23;20452;-71
2022/01/12 14:42:48;;;;;;;0.00;0.00;;;8.00;99.90;;;;;;6214045;23;20055;-70